sensor_id;sensor_type;location;lat;lon;timestamp;P1;durP1;ratioP1;P2;durP2;ratioP2
21567;SDS011;10944;42.590;12.630;2023-02-18T00:01:26;56.60;;;32.87;;
21567;SDS011;10944;42.590;12.630;2023-02-18T00:03:54;63.93;;;34.50;;
21567;SDS011;10944;42.590;12.630;2023-02-18T00:06:22;58.43;;;34.83;;
21567;SDS011;10944;42.590;12.630;2023-02-18T00:08:49;68.50;;;39.27;;
21567;SDS011;10944;42.590;12.630;2023-02-18T00:11:16;69.13;;;38.37;;
21567;SDS011;10944;42.590;12.630;2023-02-18T00:13:42;68.23;;;37.63;;
21567;SDS011;10944;42.590;12.630;2023-02-18T00:16:13;63.20;;;36.20;;
21567;SDS011;10944;42.590;12.630;2023-02-18T00:18:38;64.10;;;36.67;;
21567;SDS011;10944;42.590;12.630;2023-02-18T00:21:04;62.70;;;34.50;;
21567;SDS011;10944;42.590;12.630;2023-02-18T00:23:31;60.03;;;34.93;;
21567;SDS011;10944;42.590;12.630;2023-02-18T00:26:01;59.83;;;33.60;;
21567;SDS011;10944;42.590;12.630;2023-02-18T00:28:28;55.20;;;33.07;;
21567;SDS011;10944;42.590;12.630;2023-02-18T00:30:53;57.97;;;34.03;;
21567;SDS011;10944;42.590;12.630;2023-02-18T00:33:19;58.07;;;35.00;;
21567;SDS011;10944;42.590;12.630;2023-02-18T00:35:45;56.97;;;33.97;;
21567;SDS011;10944;42.590;12.630;2023-02-18T00:38:11;68.00;;;34.43;;
21567;SDS011;10944;42.590;12.630;2023-02-18T00:40:37;59.00;;;33.77;;
21567;SDS011;10944;42.590;12.630;2023-02-18T00:43:04;62.77;;;33.70;;
21567;SDS011;10944;42.590;12.630;2023-02-18T00:45:29;60.03;;;33.43;;
21567;SDS011;10944;42.590;12.630;2023-02-18T00:47:55;63.07;;;34.70;;
21567;SDS011;10944;42.590;12.630;2023-02-18T00:50:21;65.20;;;36.97;;
21567;SDS011;10944;42.590;12.630;2023-02-18T00:52:47;68.03;;;38.03;;
21567;SDS011;10944;42.590;12.630;2023-02-18T00:55:13;69.90;;;39.47;;
21567;SDS011;10944;42.590;12.630;2023-02-18T00:57:38;68.50;;;39.30;;
21567;SDS011;10944;42.590;12.630;2023-02-18T01:00:05;68.53;;;38.63;;
21567;SDS011;10944;42.590;12.630;2023-02-18T01:02:32;68.17;;;38.90;;
21567;SDS011;10944;42.590;12.630;2023-02-18T01:04:58;65.10;;;37.70;;
21567;SDS011;10944;42.590;12.630;2023-02-18T01:07:25;63.37;;;36.80;;
21567;SDS011;10944;42.590;12.630;2023-02-18T01:09:50;63.20;;;37.33;;
21567;SDS011;10944;42.590;12.630;2023-02-18T01:12:16;63.20;;;35.90;;
21567;SDS011;10944;42.590;12.630;2023-02-18T01:14:42;56.73;;;33.47;;
21567;SDS011;10944;42.590;12.630;2023-02-18T01:17:07;57.17;;;32.13;;
21567;SDS011;10944;42.590;12.630;2023-02-18T01:19:33;58.87;;;33.27;;
21567;SDS011;10944;42.590;12.630;2023-02-18T01:21:59;60.90;;;34.43;;
21567;SDS011;10944;42.590;12.630;2023-02-18T01:24:24;59.00;;;34.63;;
21567;SDS011;10944;42.590;12.630;2023-02-18T01:26:50;63.90;;;36.17;;
21567;SDS011;10944;42.590;12.630;2023-02-18T01:29:16;66.30;;;36.27;;
21567;SDS011;10944;42.590;12.630;2023-02-18T01:31:42;62.70;;;35.50;;
21567;SDS011;10944;42.590;12.630;2023-02-18T01:34:07;61.10;;;34.23;;
21567;SDS011;10944;42.590;12.630;2023-02-18T01:36:33;57.30;;;33.90;;
21567;SDS011;10944;42.590;12.630;2023-02-18T01:38:59;60.90;;;34.10;;
21567;SDS011;10944;42.590;12.630;2023-02-18T01:41:24;59.43;;;33.80;;
21567;SDS011;10944;42.590;12.630;2023-02-18T01:46:55;59.73;;;34.97;;
21567;SDS011;10944;42.590;12.630;2023-02-18T01:51:56;67.77;;;35.80;;
21567;SDS011;10944;42.590;12.630;2023-02-18T01:54:27;62.73;;;34.90;;
21567;SDS011;10944;42.590;12.630;2023-02-18T01:59:51;50.00;;;30.17;;
21567;SDS011;10944;42.590;12.630;2023-02-18T02:02:21;57.30;;;33.10;;
21567;SDS011;10944;42.590;12.630;2023-02-18T02:04:49;62.20;;;35.40;;
21567;SDS011;10944;42.590;12.630;2023-02-18T02:07:15;59.10;;;32.90;;
21567;SDS011;10944;42.590;12.630;2023-02-18T02:09:43;60.90;;;33.47;;
21567;SDS011;10944;42.590;12.630;2023-02-18T02:15:22;56.13;;;31.57;;
21567;SDS011;10944;42.590;12.630;2023-02-18T02:18:04;54.23;;;30.63;;
21567;SDS011;10944;42.590;12.630;2023-02-18T02:23:30;53.37;;;29.87;;
21567;SDS011;10944;42.590;12.630;2023-02-18T02:29:29;55.30;;;31.07;;
21567;SDS011;10944;42.590;12.630;2023-02-18T02:34:56;58.97;;;31.43;;
21567;SDS011;10944;42.590;12.630;2023-02-18T02:37:30;55.27;;;30.90;;
21567;SDS011;10944;42.590;12.630;2023-02-18T02:40:35;51.37;;;29.50;;
21567;SDS011;10944;42.590;12.630;2023-02-18T02:43:14;50.80;;;28.70;;
21567;SDS011;10944;42.590;12.630;2023-02-18T02:51:45;55.43;;;30.70;;
21567;SDS011;10944;42.590;12.630;2023-02-18T02:54:19;60.90;;;32.47;;
21567;SDS011;10944;42.590;12.630;2023-02-18T02:56:49;60.97;;;33.20;;
21567;SDS011;10944;42.590;12.630;2023-02-18T02:59:16;61.43;;;33.70;;
21567;SDS011;10944;42.590;12.630;2023-02-18T03:07:41;66.20;;;34.87;;
21567;SDS011;10944;42.590;12.630;2023-02-18T03:10:35;65.83;;;34.97;;
21567;SDS011;10944;42.590;12.630;2023-02-18T03:13:21;64.17;;;33.50;;
21567;SDS011;10944;42.590;12.630;2023-02-18T03:18:39;57.63;;;32.63;;
21567;SDS011;10944;42.590;12.630;2023-02-18T03:21:14;60.93;;;33.47;;
21567;SDS011;10944;42.590;12.630;2023-02-18T03:23:55;58.00;;;33.20;;
21567;SDS011;10944;42.590;12.630;2023-02-18T03:26:32;59.40;;;32.50;;
21567;SDS011;10944;42.590;12.630;2023-02-18T03:29:02;54.73;;;31.93;;
21567;SDS011;10944;42.590;12.630;2023-02-18T03:31:29;56.87;;;31.03;;
21567;SDS011;10944;42.590;12.630;2023-02-18T03:34:00;53.93;;;30.53;;
21567;SDS011;10944;42.590;12.630;2023-02-18T03:36:30;49.40;;;29.77;;
21567;SDS011;10944;42.590;12.630;2023-02-18T03:39:08;53.70;;;28.90;;
21567;SDS011;10944;42.590;12.630;2023-02-18T03:41:38;51.63;;;27.47;;
21567;SDS011;10944;42.590;12.630;2023-02-18T03:44:05;53.10;;;28.73;;
21567;SDS011;10944;42.590;12.630;2023-02-18T03:46:32;51.20;;;28.47;;
21567;SDS011;10944;42.590;12.630;2023-02-18T03:48:59;46.93;;;27.00;;
21567;SDS011;10944;42.590;12.630;2023-02-18T03:51:25;45.77;;;26.83;;
21567;SDS011;10944;42.590;12.630;2023-02-18T03:53:51;48.33;;;27.37;;
21567;SDS011;10944;42.590;12.630;2023-02-18T03:56:17;49.10;;;27.70;;
21567;SDS011;10944;42.590;12.630;2023-02-18T03:58:43;49.53;;;27.80;;
21567;SDS011;10944;42.590;12.630;2023-02-18T04:01:09;50.57;;;26.27;;
21567;SDS011;10944;42.590;12.630;2023-02-18T04:03:35;47.40;;;26.23;;
21567;SDS011;10944;42.590;12.630;2023-02-18T04:06:00;45.13;;;25.93;;
21567;SDS011;10944;42.590;12.630;2023-02-18T04:08:26;47.13;;;26.50;;
21567;SDS011;10944;42.590;12.630;2023-02-18T04:10:52;48.77;;;26.87;;
21567;SDS011;10944;42.590;12.630;2023-02-18T04:13:17;44.93;;;25.60;;
21567;SDS011;10944;42.590;12.630;2023-02-18T04:15:43;50.50;;;26.87;;
21567;SDS011;10944;42.590;12.630;2023-02-18T04:18:09;45.23;;;26.20;;
21567;SDS011;10944;42.590;12.630;2023-02-18T04:20:35;53.80;;;28.23;;
21567;SDS011;10944;42.590;12.630;2023-02-18T04:23:02;48.23;;;26.57;;
21567;SDS011;10944;42.590;12.630;2023-02-18T04:25:28;49.80;;;27.07;;
21567;SDS011;10944;42.590;12.630;2023-02-18T04:27:54;49.43;;;27.20;;
21567;SDS011;10944;42.590;12.630;2023-02-18T04:30:19;51.03;;;26.97;;
21567;SDS011;10944;42.590;12.630;2023-02-18T04:32:45;50.23;;;26.07;;
21567;SDS011;10944;42.590;12.630;2023-02-18T04:35:11;48.93;;;25.63;;
21567;SDS011;10944;42.590;12.630;2023-02-18T04:37:37;49.57;;;25.13;;
21567;SDS011;10944;42.590;12.630;2023-02-18T04:40:02;44.27;;;24.73;;
21567;SDS011;10944;42.590;12.630;2023-02-18T04:42:28;40.63;;;23.20;;
21567;SDS011;10944;42.590;12.630;2023-02-18T04:44:54;41.47;;;23.17;;
21567;SDS011;10944;42.590;12.630;2023-02-18T04:47:20;42.20;;;22.37;;
21567;SDS011;10944;42.590;12.630;2023-02-18T04:49:46;43.47;;;23.67;;
21567;SDS011;10944;42.590;12.630;2023-02-18T04:52:11;44.67;;;24.67;;
21567;SDS011;10944;42.590;12.630;2023-02-18T04:54:37;45.00;;;23.60;;
21567;SDS011;10944;42.590;12.630;2023-02-18T04:57:03;43.33;;;23.50;;
21567;SDS011;10944;42.590;12.630;2023-02-18T04:59:29;40.90;;;24.13;;
21567;SDS011;10944;42.590;12.630;2023-02-18T05:01:54;44.47;;;23.20;;
21567;SDS011;10944;42.590;12.630;2023-02-18T05:04:20;42.83;;;24.17;;
21567;SDS011;10944;42.590;12.630;2023-02-18T05:06:46;47.43;;;24.87;;
21567;SDS011;10944;42.590;12.630;2023-02-18T05:09:12;45.30;;;24.63;;
21567;SDS011;10944;42.590;12.630;2023-02-18T05:11:38;42.10;;;23.33;;
21567;SDS011;10944;42.590;12.630;2023-02-18T05:14:03;44.57;;;23.77;;
21567;SDS011;10944;42.590;12.630;2023-02-18T05:16:29;42.63;;;24.00;;
21567;SDS011;10944;42.590;12.630;2023-02-18T05:18:55;40.97;;;22.70;;
21567;SDS011;10944;42.590;12.630;2023-02-18T05:21:21;40.00;;;21.53;;
21567;SDS011;10944;42.590;12.630;2023-02-18T05:23:47;37.97;;;21.30;;
21567;SDS011;10944;42.590;12.630;2023-02-18T05:26:12;37.93;;;21.03;;
21567;SDS011;10944;42.590;12.630;2023-02-18T05:28:38;40.73;;;22.00;;
21567;SDS011;10944;42.590;12.630;2023-02-18T05:31:04;37.17;;;21.07;;
21567;SDS011;10944;42.590;12.630;2023-02-18T05:33:30;34.73;;;19.73;;
21567;SDS011;10944;42.590;12.630;2023-02-18T05:35:55;37.50;;;20.80;;
21567;SDS011;10944;42.590;12.630;2023-02-18T05:38:21;37.20;;;20.90;;
21567;SDS011;10944;42.590;12.630;2023-02-18T05:40:47;34.70;;;19.47;;
21567;SDS011;10944;42.590;12.630;2023-02-18T05:43:13;36.87;;;20.77;;
21567;SDS011;10944;42.590;12.630;2023-02-18T05:45:39;39.23;;;20.37;;
21567;SDS011;10944;42.590;12.630;2023-02-18T05:48:05;39.93;;;21.37;;
21567;SDS011;10944;42.590;12.630;2023-02-18T05:50:31;36.57;;;21.67;;
21567;SDS011;10944;42.590;12.630;2023-02-18T05:52:57;34.57;;;19.93;;
21567;SDS011;10944;42.590;12.630;2023-02-18T05:55:22;39.23;;;20.70;;
21567;SDS011;10944;42.590;12.630;2023-02-18T05:57:49;39.93;;;20.80;;
21567;SDS011;10944;42.590;12.630;2023-02-18T06:00:15;41.20;;;22.20;;
21567;SDS011;10944;42.590;12.630;2023-02-18T06:02:41;44.40;;;23.53;;
21567;SDS011;10944;42.590;12.630;2023-02-18T06:05:07;45.80;;;25.57;;
21567;SDS011;10944;42.590;12.630;2023-02-18T06:07:34;45.20;;;25.73;;
21567;SDS011;10944;42.590;12.630;2023-02-18T06:09:59;48.73;;;24.93;;
21567;SDS011;10944;42.590;12.630;2023-02-18T06:12:25;47.57;;;24.50;;
21567;SDS011;10944;42.590;12.630;2023-02-18T06:14:51;44.20;;;25.17;;
21567;SDS011;10944;42.590;12.630;2023-02-18T06:17:16;45.17;;;24.63;;
21567;SDS011;10944;42.590;12.630;2023-02-18T06:19:43;43.83;;;24.20;;
21567;SDS011;10944;42.590;12.630;2023-02-18T06:22:09;47.10;;;25.57;;
21567;SDS011;10944;42.590;12.630;2023-02-18T06:24:35;48.27;;;26.80;;
21567;SDS011;10944;42.590;12.630;2023-02-18T06:27:01;52.07;;;27.07;;
21567;SDS011;10944;42.590;12.630;2023-02-18T06:29:27;49.43;;;27.67;;
21567;SDS011;10944;42.590;12.630;2023-02-18T06:31:57;51.53;;;28.70;;
21567;SDS011;10944;42.590;12.630;2023-02-18T06:34:23;52.33;;;28.20;;
21567;SDS011;10944;42.590;12.630;2023-02-18T06:36:50;53.90;;;28.60;;
21567;SDS011;10944;42.590;12.630;2023-02-18T06:39:16;50.17;;;27.03;;
21567;SDS011;10944;42.590;12.630;2023-02-18T06:41:42;48.03;;;27.13;;
21567;SDS011;10944;42.590;12.630;2023-02-18T06:44:07;48.47;;;27.60;;
21567;SDS011;10944;42.590;12.630;2023-02-18T06:46:33;51.00;;;28.30;;
21567;SDS011;10944;42.590;12.630;2023-02-18T06:48:59;50.00;;;28.07;;
21567;SDS011;10944;42.590;12.630;2023-02-18T06:51:25;50.10;;;27.67;;
21567;SDS011;10944;42.590;12.630;2023-02-18T06:53:50;48.37;;;26.87;;
21567;SDS011;10944;42.590;12.630;2023-02-18T06:56:16;48.13;;;27.80;;
21567;SDS011;10944;42.590;12.630;2023-02-18T06:58:42;46.67;;;26.80;;
21567;SDS011;10944;42.590;12.630;2023-02-18T07:01:07;47.47;;;26.57;;
21567;SDS011;10944;42.590;12.630;2023-02-18T07:03:33;44.33;;;26.20;;
21567;SDS011;10944;42.590;12.630;2023-02-18T07:05:59;59.27;;;26.27;;
21567;SDS011;10944;42.590;12.630;2023-02-18T07:08:25;61.67;;;23.23;;
21567;SDS011;10944;42.590;12.630;2023-02-18T07:10:51;45.00;;;22.97;;
21567;SDS011;10944;42.590;12.630;2023-02-18T07:13:16;41.57;;;24.10;;
21567;SDS011;10944;42.590;12.630;2023-02-18T07:15:42;39.67;;;23.63;;
21567;SDS011;10944;42.590;12.630;2023-02-18T07:18:08;44.17;;;26.00;;
21567;SDS011;10944;42.590;12.630;2023-02-18T07:20:33;41.50;;;24.40;;
21567;SDS011;10944;42.590;12.630;2023-02-18T07:22:59;47.83;;;26.40;;
21567;SDS011;10944;42.590;12.630;2023-02-18T07:25:25;44.20;;;25.30;;
21567;SDS011;10944;42.590;12.630;2023-02-18T07:27:51;56.13;;;32.83;;
21567;SDS011;10944;42.590;12.630;2023-02-18T07:30:17;62.87;;;36.27;;
21567;SDS011;10944;42.590;12.630;2023-02-18T07:32:43;61.10;;;36.73;;
21567;SDS011;10944;42.590;12.630;2023-02-18T07:35:10;65.07;;;36.70;;
21567;SDS011;10944;42.590;12.630;2023-02-18T07:37:39;65.07;;;37.23;;
21567;SDS011;10944;42.590;12.630;2023-02-18T07:40:08;74.83;;;38.47;;
21567;SDS011;10944;42.590;12.630;2023-02-18T07:42:34;65.43;;;38.00;;
21567;SDS011;10944;42.590;12.630;2023-02-18T07:45:00;68.83;;;38.73;;
21567;SDS011;10944;42.590;12.630;2023-02-18T07:47:26;63.63;;;38.30;;
21567;SDS011;10944;42.590;12.630;2023-02-18T07:49:51;62.77;;;36.97;;
21567;SDS011;10944;42.590;12.630;2023-02-18T07:52:17;69.93;;;39.43;;
21567;SDS011;10944;42.590;12.630;2023-02-18T07:54:43;64.43;;;38.43;;
21567;SDS011;10944;42.590;12.630;2023-02-18T07:57:08;67.50;;;37.40;;
21567;SDS011;10944;42.590;12.630;2023-02-18T07:59:34;63.67;;;37.07;;
21567;SDS011;10944;42.590;12.630;2023-02-18T08:02:00;64.13;;;37.20;;
21567;SDS011;10944;42.590;12.630;2023-02-18T08:04:26;64.50;;;36.83;;
21567;SDS011;10944;42.590;12.630;2023-02-18T08:06:51;60.23;;;34.70;;
21567;SDS011;10944;42.590;12.630;2023-02-18T08:09:17;50.33;;;31.53;;
21567;SDS011;10944;42.590;12.630;2023-02-18T08:11:43;56.10;;;33.73;;
21567;SDS011;10944;42.590;12.630;2023-02-18T08:14:10;57.27;;;33.47;;
21567;SDS011;10944;42.590;12.630;2023-02-18T08:16:35;58.77;;;35.57;;
21567;SDS011;10944;42.590;12.630;2023-02-18T08:19:02;54.03;;;33.20;;
21567;SDS011;10944;42.590;12.630;2023-02-18T08:21:28;59.30;;;34.33;;
21567;SDS011;10944;42.590;12.630;2023-02-18T08:23:56;55.33;;;33.00;;
21567;SDS011;10944;42.590;12.630;2023-02-18T08:26:22;55.30;;;33.23;;
21567;SDS011;10944;42.590;12.630;2023-02-18T08:28:48;51.90;;;32.40;;
21567;SDS011;10944;42.590;12.630;2023-02-18T08:31:18;52.37;;;32.17;;
21567;SDS011;10944;42.590;12.630;2023-02-18T08:33:49;50.63;;;30.27;;
21567;SDS011;10944;42.590;12.630;2023-02-18T08:36:16;48.83;;;29.33;;
21567;SDS011;10944;42.590;12.630;2023-02-18T08:38:42;57.53;;;34.90;;
21567;SDS011;10944;42.590;12.630;2023-02-18T08:41:08;59.13;;;34.20;;
21567;SDS011;10944;42.590;12.630;2023-02-18T08:43:38;57.07;;;33.67;;
21567;SDS011;10944;42.590;12.630;2023-02-18T08:46:04;55.67;;;34.40;;
21567;SDS011;10944;42.590;12.630;2023-02-18T08:48:30;69.00;;;38.67;;
21567;SDS011;10944;42.590;12.630;2023-02-18T08:50:56;73.90;;;37.87;;
21567;SDS011;10944;42.590;12.630;2023-02-18T08:53:22;57.77;;;34.73;;
21567;SDS011;10944;42.590;12.630;2023-02-18T08:55:48;67.40;;;37.73;;
21567;SDS011;10944;42.590;12.630;2023-02-18T08:58:14;67.47;;;38.17;;
21567;SDS011;10944;42.590;12.630;2023-02-18T09:00:40;58.07;;;34.47;;
21567;SDS011;10944;42.590;12.630;2023-02-18T09:03:07;55.87;;;33.30;;
21567;SDS011;10944;42.590;12.630;2023-02-18T09:05:34;172.60;;;86.10;;
21567;SDS011;10944;42.590;12.630;2023-02-18T09:08:00;85.63;;;50.13;;
21567;SDS011;10944;42.590;12.630;2023-02-18T09:10:25;97.03;;;59.87;;
21567;SDS011;10944;42.590;12.630;2023-02-18T09:12:51;67.93;;;42.77;;
21567;SDS011;10944;42.590;12.630;2023-02-18T09:15:17;58.63;;;36.83;;
21567;SDS011;10944;42.590;12.630;2023-02-18T09:17:43;56.83;;;37.20;;
21567;SDS011;10944;42.590;12.630;2023-02-18T09:20:08;84.10;;;52.60;;
21567;SDS011;10944;42.590;12.630;2023-02-18T09:22:34;60.53;;;39.60;;
21567;SDS011;10944;42.590;12.630;2023-02-18T09:25:00;58.70;;;35.87;;
21567;SDS011;10944;42.590;12.630;2023-02-18T09:27:27;51.87;;;32.10;;
21567;SDS011;10944;42.590;12.630;2023-02-18T09:29:52;58.17;;;33.47;;
21567;SDS011;10944;42.590;12.630;2023-02-18T09:32:18;56.10;;;32.47;;
21567;SDS011;10944;42.590;12.630;2023-02-18T09:34:44;51.08;;;32.40;;
21567;SDS011;10944;42.590;12.630;2023-02-18T09:37:10;58.30;;;33.90;;
21567;SDS011;10944;42.590;12.630;2023-02-18T09:39:36;50.60;;;31.77;;
21567;SDS011;10944;42.590;12.630;2023-02-18T09:42:03;54.10;;;34.00;;
21567;SDS011;10944;42.590;12.630;2023-02-18T09:44:33;53.90;;;32.57;;
21567;SDS011;10944;42.590;12.630;2023-02-18T09:47:09;48.47;;;31.45;;
21567;SDS011;10944;42.590;12.630;2023-02-18T09:49:59;49.47;;;30.55;;
21567;SDS011;10944;42.590;12.630;2023-02-18T09:52:32;50.38;;;31.90;;
21567;SDS011;10944;42.590;12.630;2023-02-18T09:55:23;47.35;;;30.30;;
21567;SDS011;10944;42.590;12.630;2023-02-18T09:58:25;51.65;;;32.85;;
21567;SDS011;10944;42.590;12.630;2023-02-18T10:03:23;49.80;;;31.45;;
21567;SDS011;10944;42.590;12.630;2023-02-18T10:05:57;56.75;;;33.03;;
21567;SDS011;10944;42.590;12.630;2023-02-18T10:08:32;46.38;;;29.88;;
21567;SDS011;10944;42.590;12.630;2023-02-18T10:11:00;51.78;;;32.85;;
21567;SDS011;10944;42.590;12.630;2023-02-18T10:13:31;54.65;;;34.17;;
21567;SDS011;10944;42.590;12.630;2023-02-18T10:15:58;54.65;;;31.63;;
21567;SDS011;10944;42.590;12.630;2023-02-18T10:18:25;47.65;;;30.33;;
21567;SDS011;10944;42.590;12.630;2023-02-18T10:20:59;45.30;;;28.60;;
21567;SDS011;10944;42.590;12.630;2023-02-18T10:23:35;45.85;;;29.17;;
21567;SDS011;10944;42.590;12.630;2023-02-18T10:26:05;36.25;;;23.48;;
21567;SDS011;10944;42.590;12.630;2023-02-18T10:28:36;31.65;;;20.52;;
21567;SDS011;10944;42.590;12.630;2023-02-18T10:31:09;40.63;;;25.52;;
21567;SDS011;10944;42.590;12.630;2023-02-18T10:33:46;32.53;;;21.92;;
21567;SDS011;10944;42.590;12.630;2023-02-18T10:36:26;46.47;;;26.92;;
21567;SDS011;10944;42.590;12.630;2023-02-18T10:41:58;41.33;;;24.85;;
21567;SDS011;10944;42.590;12.630;2023-02-18T10:44:45;25.20;;;17.30;;
21567;SDS011;10944;42.590;12.630;2023-02-18T10:47:34;22.23;;;13.95;;
21567;SDS011;10944;42.590;12.630;2023-02-18T10:52:44;26.88;;;17.70;;
21567;SDS011;10944;42.590;12.630;2023-02-18T10:55:14;38.55;;;20.40;;
21567;SDS011;10944;42.590;12.630;2023-02-18T10:57:47;28.98;;;17.73;;
21567;SDS011;10944;42.590;12.630;2023-02-18T11:00:16;28.77;;;17.98;;
21567;SDS011;10944;42.590;12.630;2023-02-18T11:03:12;20.85;;;13.63;;
21567;SDS011;10944;42.590;12.630;2023-02-18T11:05:43;25.67;;;16.15;;
21567;SDS011;10944;42.590;12.630;2023-02-18T11:08:13;26.05;;;15.05;;
21567;SDS011;10944;42.590;12.630;2023-02-18T11:10:44;20.60;;;13.30;;
21567;SDS011;10944;42.590;12.630;2023-02-18T11:13:11;21.92;;;14.30;;
21567;SDS011;10944;42.590;12.630;2023-02-18T11:16:35;21.90;;;14.27;;
21567;SDS011;10944;42.590;12.630;2023-02-18T11:18:41;21.35;;;13.10;;
21567;SDS011;10944;42.590;12.630;2023-02-18T11:21:20;28.33;;;17.90;;
21567;SDS011;10944;42.590;12.630;2023-02-18T11:23:54;26.40;;;17.63;;
21567;SDS011;10944;42.590;12.630;2023-02-18T11:26:26;27.25;;;16.95;;
21567;SDS011;10944;42.590;12.630;2023-02-18T11:28:56;22.48;;;15.07;;
21567;SDS011;10944;42.590;12.630;2023-02-18T11:31:33;20.55;;;13.65;;
21567;SDS011;10944;42.590;12.630;2023-02-18T11:34:09;17.25;;;11.32;;
21567;SDS011;10944;42.590;12.630;2023-02-18T11:37:05;21.50;;;14.90;;
21567;SDS011;10944;42.590;12.630;2023-02-18T11:39:33;21.63;;;14.35;;
21567;SDS011;10944;42.590;12.630;2023-02-18T11:42:01;19.17;;;13.80;;
21567;SDS011;10944;42.590;12.630;2023-02-18T11:44:36;20.70;;;14.32;;
21567;SDS011;10944;42.590;12.630;2023-02-18T11:47:08;21.13;;;13.57;;
21567;SDS011;10944;42.590;12.630;2023-02-18T11:50:31;22.25;;;13.73;;
21567;SDS011;10944;42.590;12.630;2023-02-18T11:52:35;19.80;;;14.18;;
21567;SDS011;10944;42.590;12.630;2023-02-18T11:55:06;22.08;;;14.55;;
21567;SDS011;10944;42.590;12.630;2023-02-18T11:57:37;86.72;;;42.78;;
21567;SDS011;10944;42.590;12.630;2023-02-18T12:02:58;129.13;;;90.00;;
21567;SDS011;10944;42.590;12.630;2023-02-18T12:05:26;36.60;;;23.67;;
21567;SDS011;10944;42.590;12.630;2023-02-18T12:10:22;24.98;;;16.65;;
21567;SDS011;10944;42.590;12.630;2023-02-18T12:12:58;26.33;;;17.08;;
21567;SDS011;10944;42.590;12.630;2023-02-18T12:15:51;24.42;;;15.38;;
21567;SDS011;10944;42.590;12.630;2023-02-18T12:21:35;25.77;;;13.57;;
21567;SDS011;10944;42.590;12.630;2023-02-18T12:24:24;216.85;;;116.50;;
21567;SDS011;10944;42.590;12.630;2023-02-18T12:30:11;39.55;;;24.15;;
21567;SDS011;10944;42.590;12.630;2023-02-18T12:33:06;24.25;;;15.25;;
21567;SDS011;10944;42.590;12.630;2023-02-18T12:41:12;18.55;;;11.27;;
21567;SDS011;10944;42.590;12.630;2023-02-18T12:47:50;13.98;;;7.75;;
21567;SDS011;10944;42.590;12.630;2023-02-18T13:00:53;16.27;;;8.20;;
21567;SDS011;10944;42.590;12.630;2023-02-18T13:06:46;14.15;;;8.90;;
21567;SDS011;10944;42.590;12.630;2023-02-18T13:14:19;14.85;;;7.30;;
21567;SDS011;10944;42.590;12.630;2023-02-18T13:16:52;11.23;;;6.80;;
21567;SDS011;10944;42.590;12.630;2023-02-18T13:19:24;12.13;;;6.95;;
21567;SDS011;10944;42.590;12.630;2023-02-18T13:21:55;13.27;;;8.23;;
21567;SDS011;10944;42.590;12.630;2023-02-18T13:24:32;14.70;;;8.50;;
21567;SDS011;10944;42.590;12.630;2023-02-18T13:27:20;13.55;;;6.45;;
21567;SDS011;10944;42.590;12.630;2023-02-18T13:38:14;12.85;;;7.63;;
21567;SDS011;10944;42.590;12.630;2023-02-18T13:40:54;24.38;;;13.82;;
21567;SDS011;10944;42.590;12.630;2023-02-18T13:43:32;16.90;;;10.18;;
21567;SDS011;10944;42.590;12.630;2023-02-18T13:46:12;11.70;;;7.13;;
21567;SDS011;10944;42.590;12.630;2023-02-18T13:51:29;9.27;;;5.55;;
21567;SDS011;10944;42.590;12.630;2023-02-18T13:53:59;9.85;;;5.72;;
21567;SDS011;10944;42.590;12.630;2023-02-18T13:56:44;10.18;;;6.13;;
21567;SDS011;10944;42.590;12.630;2023-02-18T13:59:18;13.02;;;7.65;;
21567;SDS011;10944;42.590;12.630;2023-02-18T14:01:52;27.55;;;17.00;;
21567;SDS011;10944;42.590;12.630;2023-02-18T14:09:49;32.63;;;19.45;;
21567;SDS011;10944;42.590;12.630;2023-02-18T14:14:48;16.02;;;8.23;;
21567;SDS011;10944;42.590;12.630;2023-02-18T14:20:21;22.35;;;12.73;;
21567;SDS011;10944;42.590;12.630;2023-02-18T14:22:44;46.50;;;24.52;;
21567;SDS011;10944;42.590;12.630;2023-02-18T14:27:46;13.40;;;8.50;;
21567;SDS011;10944;42.590;12.630;2023-02-18T14:30:23;16.30;;;9.60;;
21567;SDS011;10944;42.590;12.630;2023-02-18T14:32:55;14.98;;;8.18;;
21567;SDS011;10944;42.590;12.630;2023-02-18T14:48:32;11.43;;;6.40;;
21567;SDS011;10944;42.590;12.630;2023-02-18T14:51:13;9.27;;;5.93;;
21567;SDS011;10944;42.590;12.630;2023-02-18T14:53:44;9.40;;;5.45;;
21567;SDS011;10944;42.590;12.630;2023-02-18T14:56:12;13.40;;;6.40;;
21567;SDS011;10944;42.590;12.630;2023-02-18T14:58:46;10.82;;;5.97;;
21567;SDS011;10944;42.590;12.630;2023-02-18T15:01:19;11.18;;;6.18;;
21567;SDS011;10944;42.590;12.630;2023-02-18T15:03:51;12.75;;;6.60;;
21567;SDS011;10944;42.590;12.630;2023-02-18T15:08:49;10.25;;;6.78;;
21567;SDS011;10944;42.590;12.630;2023-02-18T15:11:14;11.10;;;5.68;;
21567;SDS011;10944;42.590;12.630;2023-02-18T15:13:42;9.30;;;5.38;;
21567;SDS011;10944;42.590;12.630;2023-02-18T15:16:52;11.15;;;5.65;;
21567;SDS011;10944;42.590;12.630;2023-02-18T15:18:59;8.77;;;6.00;;
21567;SDS011;10944;42.590;12.630;2023-02-18T15:21:32;9.90;;;5.57;;
21567;SDS011;10944;42.590;12.630;2023-02-18T15:24:46;11.20;;;6.78;;
21567;SDS011;10944;42.590;12.630;2023-02-18T15:26:58;11.02;;;6.10;;
21567;SDS011;10944;42.590;12.630;2023-02-18T15:29:33;11.35;;;6.25;;
21567;SDS011;10944;42.590;12.630;2023-02-18T15:32:00;9.98;;;6.30;;
21567;SDS011;10944;42.590;12.630;2023-02-18T15:34:37;9.40;;;6.50;;
21567;SDS011;10944;42.590;12.630;2023-02-18T15:37:09;9.13;;;6.00;;
21567;SDS011;10944;42.590;12.630;2023-02-18T15:39:39;9.07;;;5.88;;
21567;SDS011;10944;42.590;12.630;2023-02-18T15:44:44;10.68;;;5.95;;
21567;SDS011;10944;42.590;12.630;2023-02-18T15:47:12;9.52;;;6.22;;
21567;SDS011;10944;42.590;12.630;2023-02-18T15:49:38;12.40;;;6.15;;
21567;SDS011;10944;42.590;12.630;2023-02-18T15:52:11;10.10;;;6.10;;
21567;SDS011;10944;42.590;12.630;2023-02-18T15:54:38;9.80;;;6.20;;
21567;SDS011;10944;42.590;12.630;2023-02-18T15:57:05;13.18;;;7.38;;
21567;SDS011;10944;42.590;12.630;2023-02-18T15:59:34;9.88;;;6.35;;
21567;SDS011;10944;42.590;12.630;2023-02-18T16:02:19;11.70;;;6.72;;
21567;SDS011;10944;42.590;12.630;2023-02-18T16:04:51;10.57;;;6.75;;
21567;SDS011;10944;42.590;12.630;2023-02-18T16:07:26;11.23;;;7.03;;
21567;SDS011;10944;42.590;12.630;2023-02-18T16:12:40;10.88;;;7.22;;
21567;SDS011;10944;42.590;12.630;2023-02-18T16:15:10;12.82;;;7.60;;
21567;SDS011;10944;42.590;12.630;2023-02-18T16:17:45;12.60;;;7.75;;
21567;SDS011;10944;42.590;12.630;2023-02-18T16:22:49;12.20;;;8.70;;
21567;SDS011;10944;42.590;12.630;2023-02-18T16:28:04;16.10;;;10.40;;
21567;SDS011;10944;42.590;12.630;2023-02-18T16:30:36;16.08;;;9.50;;
21567;SDS011;10944;42.590;12.630;2023-02-18T16:33:02;17.38;;;8.82;;
21567;SDS011;10944;42.590;12.630;2023-02-18T16:35:29;14.30;;;8.00;;
21567;SDS011;10944;42.590;12.630;2023-02-18T16:37:55;16.00;;;7.90;;
21567;SDS011;10944;42.590;12.630;2023-02-18T16:40:23;13.30;;;8.70;;